createdAt,value
2023-06-23T00:01:24.012Z,100891.90
2023-06-23T00:03:56.242Z,100892.00
2023-06-23T00:06:27.132Z,100894.87
2023-06-23T00:08:57.809Z,100893.19
2023-06-23T00:11:32.581Z,100897.38
2023-06-23T00:14:03.203Z,100900.90
2023-06-23T00:16:52.253Z,100905.62
2023-06-23T00:19:23.125Z,100904.52
2023-06-23T00:21:54.435Z,100900.73
2023-06-23T00:24:25.196Z,100899.25
2023-06-23T00:26:55.926Z,100896.48
2023-06-23T00:29:26.577Z,100888.94
2023-06-23T00:31:57.232Z,100888.38
2023-06-23T00:34:28.054Z,100887.04
2023-06-23T00:36:58.658Z,100881.19
2023-06-23T00:39:50.200Z,100876.17
2023-06-23T00:42:21.009Z,100881.26
2023-06-23T00:45:08.020Z,100888.85
2023-06-23T00:47:38.845Z,100891.04
2023-06-23T00:50:10.754Z,100889.32
2023-06-23T00:52:41.784Z,100894.54
2023-06-23T00:55:12.943Z,100896.68
2023-06-23T00:57:43.842Z,100893.01
2023-06-23T01:00:18.477Z,100886.79
2023-06-23T01:02:50.839Z,100888.88
2023-06-23T01:05:31.618Z,100887.08
2023-06-23T01:08:06.164Z,100885.66
2023-06-23T01:10:38.483Z,100885.30
2023-06-23T01:13:11.204Z,100886.27
2023-06-23T01:15:42.480Z,100885.80
2023-06-23T01:18:34.850Z,100886.48
2023-06-23T01:21:18.136Z,100883.17
2023-06-23T01:24:12.458Z,100881.56
2023-06-23T01:26:56.946Z,100881.35
2023-06-23T01:29:29.359Z,100883.02
2023-06-23T01:32:03.073Z,100884.38
2023-06-23T01:34:39.951Z,100883.88
2023-06-23T01:37:11.399Z,100881.20
2023-06-23T01:39:42.723Z,100879.00
2023-06-23T01:42:16.235Z,100883.69
2023-06-23T01:44:47.609Z,100885.83
2023-06-23T01:47:20.122Z,100888.65
2023-06-23T01:49:51.206Z,100887.58
2023-06-23T01:52:22.055Z,100886.75
2023-06-23T01:54:52.941Z,100884.79
2023-06-23T01:57:23.752Z,100886.39
2023-06-23T01:59:54.672Z,100891.23
2023-06-23T02:02:25.878Z,100892.03
2023-06-23T02:04:57.102Z,100898.10
2023-06-23T02:07:27.927Z,100901.85
2023-06-23T02:09:59.404Z,100906.89
2023-06-23T02:12:30.185Z,100906.86
2023-06-23T02:15:00.924Z,100904.37
2023-06-23T02:17:31.768Z,100908.78
2023-06-23T02:20:06.487Z,100909.19
2023-06-23T02:22:37.344Z,100905.02
2023-06-23T02:25:08.960Z,100909.00
2023-06-23T02:27:39.787Z,100902.02
2023-06-23T02:30:13.906Z,100900.04
2023-06-23T02:32:44.662Z,100901.70
2023-06-23T02:35:16.557Z,100901.02
2023-06-23T02:37:48.308Z,100900.90
2023-06-23T02:40:19.875Z,100898.95
2023-06-23T02:42:53.124Z,100896.18
2023-06-23T02:45:24.838Z,100896.07
2023-06-23T02:47:55.669Z,100892.05
2023-06-23T02:50:37.921Z,100897.67
2023-06-23T02:53:10.196Z,100895.91
2023-06-23T02:55:42.635Z,100896.28
2023-06-23T02:58:14.302Z,100893.50
2023-06-23T03:00:45.342Z,100894.77
2023-06-23T03:03:17.075Z,100892.20
2023-06-23T03:05:48.775Z,100893.98
2023-06-23T03:08:19.476Z,100898.70
2023-06-23T03:10:50.294Z,100900.20
2023-06-23T03:13:21.194Z,100898.42
2023-06-23T03:15:52.366Z,100895.52
2023-06-23T03:18:23.319Z,100903.35
2023-06-23T03:20:53.964Z,100903.34
2023-06-23T03:23:24.589Z,100900.92
2023-06-23T03:26:29.873Z,100896.88
2023-06-23T03:29:01.554Z,100893.23
2023-06-23T03:31:42.960Z,100896.91
2023-06-23T03:34:14.061Z,100893.84
2023-06-23T03:36:45.520Z,100891.38
2023-06-23T03:39:18.931Z,100888.73
2023-06-23T03:41:50.108Z,100894.61
2023-06-23T03:44:23.546Z,100894.06
2023-06-23T03:46:55.449Z,100897.13
2023-06-23T03:49:29.758Z,100898.77
2023-06-23T03:52:03.499Z,100896.92
2023-06-23T03:54:36.028Z,100897.41
2023-06-23T03:57:07.984Z,100895.93
2023-06-23T03:59:39.593Z,100894.27
2023-06-23T04:02:11.036Z,100894.20
2023-06-23T04:04:42.498Z,100889.36
2023-06-23T04:07:13.900Z,100890.64
2023-06-23T04:09:46.663Z,100887.81
2023-06-23T04:12:18.160Z,100889.33
2023-06-23T04:14:49.915Z,100885.69
2023-06-23T04:17:22.291Z,100889.88
2023-06-23T04:20:00.732Z,100891.14
2023-06-23T04:23:04.400Z,100888.91
2023-06-23T04:25:35.866Z,100890.38
2023-06-23T04:28:07.668Z,100889.45
2023-06-23T04:30:39.026Z,100894.36
2023-06-23T04:33:18.564Z,100895.75
2023-06-23T04:35:53.080Z,100898.45
2023-06-23T04:38:27.985Z,100894.75
2023-06-23T04:41:26.485Z,100897.90
2023-06-23T04:44:01.326Z,100903.36
2023-06-23T04:46:33.501Z,100908.99
2023-06-23T04:49:05.152Z,100908.79
2023-06-23T04:51:37.898Z,100907.98
2023-06-23T04:54:12.366Z,100903.95
2023-06-23T04:56:43.565Z,100902.05
2023-06-23T04:59:15.431Z,100903.07
2023-06-23T05:01:46.750Z,100902.47
2023-06-23T05:04:18.299Z,100902.73
2023-06-23T05:06:51.061Z,100899.03
2023-06-23T05:09:25.562Z,100898.12
2023-06-23T05:11:57.997Z,100906.00
2023-06-23T05:14:29.816Z,100907.93
2023-06-23T05:17:22.300Z,100909.73
2023-06-23T05:19:54.649Z,100906.45
2023-06-23T05:22:29.698Z,100905.78
2023-06-23T05:25:05.180Z,100905.23
2023-06-23T05:27:36.417Z,100908.85
2023-06-23T05:30:11.603Z,100909.96
2023-06-23T05:32:42.479Z,100913.80
2023-06-23T05:35:13.276Z,100910.94
2023-06-23T05:37:44.327Z,100912.77
2023-06-23T05:40:16.397Z,100913.50
2023-06-23T05:42:47.155Z,100912.30
2023-06-23T05:48:16.609Z,100912.07
2023-06-23T05:50:48.503Z,100910.63
2023-06-23T05:53:21.474Z,100912.52
2023-06-23T05:55:53.497Z,100916.33
2023-06-23T05:58:25.027Z,100916.31
2023-06-23T06:00:56.470Z,100921.05
2023-06-23T06:03:29.035Z,100922.05
2023-06-23T06:06:00.013Z,100919.79
2023-06-23T06:08:33.273Z,100915.77
2023-06-23T06:11:06.118Z,100913.55
2023-06-23T06:13:37.440Z,100918.63
2023-06-23T06:16:09.874Z,100915.30
2023-06-23T06:18:41.012Z,100916.85
2023-06-23T06:21:12.017Z,100920.44
2023-06-23T06:23:42.729Z,100912.92
2023-06-23T06:26:13.512Z,100918.39
2023-06-23T06:28:44.455Z,100917.02
2023-06-23T06:31:15.355Z,100919.61
2023-06-23T06:33:48.833Z,100917.66
2023-06-23T06:36:19.612Z,100918.40
2023-06-23T06:38:51.006Z,100918.68
2023-06-23T06:41:21.987Z,100919.98
2023-06-23T06:43:52.875Z,100921.38
2023-06-23T06:46:23.542Z,100922.29
2023-06-23T06:48:54.351Z,100921.44
2023-06-23T06:51:25.102Z,100921.27
2023-06-23T06:53:56.041Z,100916.83
2023-06-23T06:56:26.828Z,100917.08
2023-06-23T06:58:57.759Z,100913.89
2023-06-23T07:01:28.551Z,100914.50
2023-06-23T07:03:59.296Z,100907.66
2023-06-23T07:06:30.004Z,100910.27
2023-06-23T07:09:00.923Z,100908.48
2023-06-23T07:11:33.424Z,100904.27
2023-06-23T07:14:04.951Z,100906.44
2023-06-23T07:16:35.607Z,100899.50
2023-06-23T07:19:06.284Z,100905.33
2023-06-23T07:21:37.050Z,100901.02
2023-06-23T07:24:07.876Z,100902.80
2023-06-23T07:26:38.697Z,100901.30
2023-06-23T07:29:11.815Z,100898.13
2023-06-23T07:31:43.091Z,100902.15
2023-06-23T07:34:14.729Z,100903.55
2023-06-23T07:36:45.513Z,100905.17
2023-06-23T07:39:16.263Z,100901.42
2023-06-23T07:41:50.265Z,100900.33
2023-06-23T07:44:22.416Z,100895.65
2023-06-23T07:46:53.405Z,100896.71
2023-06-23T07:49:24.456Z,100895.39
2023-06-23T07:51:55.235Z,100897.16
2023-06-23T07:54:25.922Z,100895.86
2023-06-23T07:56:56.596Z,100888.83
2023-06-23T07:59:27.872Z,100887.02
2023-06-23T08:01:58.507Z,100881.39
2023-06-23T08:04:29.640Z,100875.70
2023-06-23T08:07:01.199Z,100876.48
2023-06-23T08:09:32.127Z,100878.18
2023-06-23T08:12:02.919Z,100875.17
2023-06-23T08:14:33.649Z,100876.48
2023-06-23T08:17:04.643Z,100874.28
2023-06-23T08:19:36.655Z,100878.65
2023-06-23T08:22:07.896Z,100877.75
2023-06-23T08:24:38.748Z,100869.30
2023-06-23T08:27:10.167Z,100865.83
2023-06-23T08:29:40.992Z,100862.39
2023-06-23T08:32:11.839Z,100865.96
2023-06-23T08:34:42.582Z,100864.34
2023-06-23T08:37:13.304Z,100860.28
2023-06-23T08:39:44.223Z,100861.17
2023-06-23T08:42:15.168Z,100859.98
2023-06-23T08:44:46.042Z,100863.83
2023-06-23T08:47:16.884Z,100863.49
2023-06-23T08:49:47.634Z,100859.23
2023-06-23T08:52:18.825Z,100859.55
2023-06-23T08:54:49.726Z,100852.77
2023-06-23T08:57:20.608Z,100853.88
2023-06-23T08:59:51.538Z,100849.81
2023-06-23T09:02:22.336Z,100850.81
2023-06-23T09:04:53.102Z,100852.75
2023-06-23T09:07:25.880Z,100851.83
2023-06-23T09:09:56.602Z,100850.22
2023-06-23T09:12:27.333Z,100847.91
2023-06-23T09:14:58.301Z,100850.65
2023-06-23T09:17:29.125Z,100847.82
2023-06-23T09:19:59.918Z,100847.04
2023-06-23T09:22:30.762Z,100844.23
2023-06-23T09:25:01.695Z,100836.55
2023-06-23T09:27:45.973Z,100843.35
2023-06-23T09:30:16.759Z,100846.33
2023-06-23T09:32:47.671Z,100844.11
2023-06-23T09:35:21.640Z,100845.52
2023-06-23T09:37:52.214Z,100841.98
2023-06-23T09:40:28.419Z,100836.58
2023-06-23T09:43:02.238Z,100832.95
2023-06-23T09:45:33.114Z,100835.80
2023-06-23T09:48:03.943Z,100832.06
2023-06-23T09:50:35.351Z,100827.29
2023-06-23T09:53:06.354Z,100823.59
2023-06-23T09:55:37.303Z,100816.49
2023-06-23T09:58:11.991Z,100815.59
2023-06-23T10:00:42.727Z,100815.44
2023-06-23T10:03:13.532Z,100811.77
2023-06-23T10:05:44.293Z,100813.30
2023-06-23T10:08:15.181Z,100812.80
2023-06-23T10:10:46.674Z,100806.08
2023-06-23T10:13:17.469Z,100804.10
2023-06-23T10:15:48.348Z,100802.65
2023-06-23T10:18:19.151Z,100807.45
2023-06-23T10:20:49.895Z,100800.50
2023-06-23T10:23:20.640Z,100796.81
2023-06-23T10:25:51.468Z,100798.39
2023-06-23T10:28:22.330Z,100796.41
2023-06-23T10:30:53.207Z,100794.80
2023-06-23T10:33:24.499Z,100799.13
2023-06-23T10:35:56.348Z,100797.14
2023-06-23T10:38:27.113Z,100791.74
2023-06-23T10:40:57.913Z,100794.72
2023-06-23T10:43:28.960Z,100789.39
2023-06-23T10:46:01.092Z,100783.79
2023-06-23T10:48:31.933Z,100776.91
2023-06-23T10:51:03.237Z,100775.14
2023-06-23T10:53:35.167Z,100777.00
2023-06-23T10:56:09.306Z,100775.94
2023-06-23T10:58:53.508Z,100771.67
2023-06-23T11:01:24.326Z,100770.39
2023-06-23T11:03:55.493Z,100766.30
2023-06-23T11:06:29.902Z,100763.50
2023-06-23T11:09:01.047Z,100764.39
2023-06-23T11:11:35.421Z,100757.08
2023-06-23T11:14:06.077Z,100751.27
2023-06-23T11:16:39.570Z,100749.30
2023-06-23T11:19:10.522Z,100748.73
2023-06-23T11:21:42.062Z,100748.63
2023-06-23T11:24:16.583Z,100747.17
2023-06-23T11:27:02.536Z,100739.83
2023-06-23T11:29:33.806Z,100737.70
2023-06-23T11:32:19.297Z,100741.39
2023-06-23T11:34:54.072Z,100737.49
2023-06-23T11:37:26.807Z,100733.35
2023-06-23T11:39:57.744Z,100735.25
2023-06-23T11:42:28.542Z,100733.98
2023-06-23T11:44:59.613Z,100727.26
2023-06-23T11:47:34.111Z,100725.20
2023-06-23T11:50:05.573Z,100724.14
2023-06-23T11:52:36.407Z,100722.44
2023-06-23T11:55:08.139Z,100723.39
2023-06-23T11:57:39.245Z,100725.14
2023-06-23T12:00:12.719Z,100720.00
2023-06-23T12:02:44.371Z,100714.73
2023-06-23T12:05:15.288Z,100718.70
2023-06-23T12:07:46.057Z,100714.73
2023-06-23T12:10:17.213Z,100717.41
2023-06-23T12:12:50.192Z,100718.11
2023-06-23T12:15:21.835Z,100717.63
2023-06-23T12:17:52.584Z,100709.54
2023-06-23T12:20:23.577Z,100709.27
2023-06-23T12:22:54.382Z,100709.91
2023-06-23T12:25:27.788Z,100709.66
2023-06-23T12:27:58.842Z,100709.17
2023-06-23T12:30:30.268Z,100704.60
2023-06-23T12:33:03.115Z,100701.71
2023-06-23T12:35:34.274Z,100699.62
2023-06-23T12:38:08.846Z,100699.73
2023-06-23T12:40:44.356Z,100698.50
2023-06-23T12:43:15.291Z,100696.70
2023-06-23T12:45:46.038Z,100693.94
2023-06-23T12:48:19.886Z,100691.67
2023-06-23T12:50:54.598Z,100688.36
2023-06-23T12:53:25.281Z,100684.66
2023-06-23T12:55:56.197Z,100683.54
2023-06-23T12:58:27.230Z,100678.06
2023-06-23T13:00:58.282Z,100678.08
2023-06-23T13:03:29.145Z,100677.40
2023-06-23T13:06:00.602Z,100677.17
2023-06-23T13:08:31.381Z,100682.66
2023-06-23T13:11:02.193Z,100681.56
2023-06-23T13:13:33.288Z,100688.41
2023-06-23T13:16:04.196Z,100685.63
2023-06-23T13:18:35.082Z,100684.25
2023-06-23T13:21:05.971Z,100684.46
2023-06-23T13:23:36.882Z,100677.40
2023-06-23T13:26:07.781Z,100677.40
2023-06-23T13:28:39.911Z,100677.77
2023-06-23T13:31:10.892Z,100673.92
2023-06-23T13:33:41.512Z,100670.79
2023-06-23T13:36:12.536Z,100673.00
2023-06-23T13:38:43.981Z,100673.12
2023-06-23T13:41:15.001Z,100670.05
2023-06-23T13:43:45.936Z,100664.70
2023-06-23T13:46:16.707Z,100662.21
2023-06-23T13:48:47.383Z,100663.15
2023-06-23T13:51:18.135Z,100659.26
2023-06-23T13:53:48.764Z,100656.84
2023-06-23T13:56:20.000Z,100652.80
2023-06-23T13:58:50.753Z,100651.36
2023-06-23T14:01:21.672Z,100650.64
2023-06-23T14:03:53.319Z,100652.07
2023-06-23T14:06:24.192Z,100647.96
2023-06-23T14:08:56.258Z,100640.98
2023-06-23T14:11:27.037Z,100640.70
2023-06-23T14:13:57.756Z,100633.21
2023-06-23T14:16:28.521Z,100633.84
2023-06-23T14:18:59.309Z,100632.04
2023-06-23T14:21:30.095Z,100630.98
2023-06-23T14:24:01.093Z,100631.09
2023-06-23T14:26:31.877Z,100628.48
2023-06-23T14:29:02.716Z,100624.73
2023-06-23T14:31:35.254Z,100625.50
2023-06-23T14:34:05.991Z,100620.73
2023-06-23T14:36:36.888Z,100615.42
2023-06-23T14:39:07.516Z,100613.73
2023-06-23T14:41:38.338Z,100608.98
2023-06-23T14:44:09.217Z,100611.89
2023-06-23T14:46:39.979Z,100615.25
2023-06-23T14:49:10.700Z,100613.69
2023-06-23T14:51:41.480Z,100611.02
2023-06-23T14:54:12.252Z,100614.94
2023-06-23T14:56:43.047Z,100615.28
2023-06-23T14:59:14.115Z,100612.16
2023-06-23T15:01:45.387Z,100607.38
2023-06-23T15:04:16.424Z,100606.68
2023-06-23T15:06:47.381Z,100601.77
2023-06-23T15:09:18.367Z,100600.19
2023-06-23T15:11:49.032Z,100597.81
2023-06-23T15:14:20.566Z,100596.80
2023-06-23T15:16:51.785Z,100598.34
2023-06-23T15:19:23.433Z,100599.71
2023-06-23T15:21:54.722Z,100600.92
2023-06-23T15:24:25.440Z,100600.36
2023-06-23T15:26:56.549Z,100595.89
2023-06-23T15:29:27.240Z,100591.98
2023-06-23T15:31:58.532Z,100589.75
2023-06-23T15:34:31.173Z,100587.26
2023-06-23T15:37:02.046Z,100584.71
2023-06-23T15:39:33.355Z,100587.20
2023-06-23T15:42:04.289Z,100588.78
2023-06-23T15:44:35.086Z,100591.71
2023-06-23T15:47:06.176Z,100593.89
2023-06-23T15:49:36.963Z,100592.73
2023-06-23T15:52:08.311Z,100590.48
2023-06-23T15:54:38.782Z,100587.95
2023-06-23T15:57:12.053Z,100588.77
2023-06-23T15:59:44.296Z,100591.13
2023-06-23T16:02:15.289Z,100585.50
2023-06-23T16:04:46.129Z,100582.34
2023-06-23T16:07:17.045Z,100583.20
2023-06-23T16:09:47.949Z,100590.53
2023-06-23T16:12:18.983Z,100593.94
2023-06-23T16:14:49.838Z,100593.14
2023-06-23T16:17:20.419Z,100591.55
2023-06-23T16:19:51.746Z,100597.25
2023-06-23T16:22:22.475Z,100599.02
2023-06-23T16:24:53.193Z,100595.89
2023-06-23T16:27:23.998Z,100595.65
2023-06-23T16:29:54.824Z,100593.63
2023-06-23T16:32:26.979Z,100592.24
2023-06-23T16:34:59.803Z,100591.56
2023-06-23T16:37:30.569Z,100591.44
2023-06-23T16:40:02.660Z,100594.90
2023-06-23T16:42:33.528Z,100590.37
2023-06-23T16:45:04.291Z,100589.51
2023-06-23T16:47:34.969Z,100588.88
2023-06-23T16:50:06.105Z,100584.36
2023-06-23T16:52:36.808Z,100580.40
2023-06-23T16:55:08.899Z,100579.51
2023-06-23T16:57:40.446Z,100584.39
2023-06-23T17:00:12.628Z,100579.27
2023-06-23T17:02:43.588Z,100578.96
2023-06-23T17:05:15.621Z,100580.04
2023-06-23T17:07:46.293Z,100574.50
2023-06-23T17:10:17.205Z,100567.79
2023-06-23T17:12:47.980Z,100568.68
2023-06-23T17:15:18.872Z,100564.42
2023-06-23T17:17:49.827Z,100560.38
2023-06-23T17:20:20.825Z,100563.38
2023-06-23T17:22:51.767Z,100571.11
2023-06-23T17:25:22.504Z,100568.53
2023-06-23T17:27:52.926Z,100564.69
2023-06-23T17:30:23.829Z,100565.67
2023-06-23T17:32:55.600Z,100567.43
2023-06-23T17:35:26.465Z,100568.46
2023-06-23T17:37:57.335Z,100565.69
2023-06-23T17:40:28.418Z,100565.52
2023-06-23T17:42:59.336Z,100565.63
2023-06-23T17:45:34.988Z,100565.95
2023-06-23T17:48:06.674Z,100565.98
2023-06-23T17:50:37.865Z,100559.45
2023-06-23T17:53:08.946Z,100562.94
2023-06-23T17:55:39.757Z,100564.73
2023-06-23T17:58:10.966Z,100568.91
2023-06-23T18:00:42.709Z,100566.75
2023-06-23T18:03:13.605Z,100565.73
2023-06-23T18:05:44.743Z,100565.77
2023-06-23T18:08:15.426Z,100567.34
2023-06-23T18:10:47.340Z,100564.39
2023-06-23T18:13:18.914Z,100561.60
2023-06-23T18:15:49.974Z,100563.77
2023-06-23T18:18:20.836Z,100563.54
2023-06-23T18:20:51.746Z,100563.26
2023-06-23T18:23:23.084Z,100562.64
2023-06-23T18:25:53.968Z,100567.96
2023-06-23T18:28:24.789Z,100563.38
2023-06-23T18:30:57.775Z,100566.73
2023-06-23T18:33:34.562Z,100567.27
2023-06-23T18:36:05.510Z,100573.65
2023-06-23T18:38:36.110Z,100574.65
2023-06-23T18:41:06.982Z,100578.04
2023-06-23T18:43:38.062Z,100577.95
2023-06-23T18:46:11.764Z,100576.59
2023-06-23T18:48:42.682Z,100579.05
2023-06-23T18:51:15.250Z,100578.07
2023-06-23T18:53:47.168Z,100579.73
2023-06-23T18:56:19.966Z,100583.03
2023-06-23T18:58:56.220Z,100583.41
2023-06-23T19:01:29.058Z,100585.38
2023-06-23T19:04:02.130Z,100581.84
2023-06-23T19:06:36.839Z,100587.30
2023-06-23T19:09:11.024Z,100586.60
2023-06-23T19:11:51.145Z,100586.52
2023-06-23T19:14:25.067Z,100578.20
2023-06-23T19:17:02.880Z,100575.87
2023-06-23T19:19:37.889Z,100577.63
2023-06-23T19:22:10.869Z,100575.06
2023-06-23T19:24:44.424Z,100575.08
2023-06-23T19:27:18.100Z,100569.17
2023-06-23T19:29:50.974Z,100570.91
2023-06-23T19:32:22.784Z,100569.06
2023-06-23T19:34:54.912Z,100570.72
2023-06-23T19:37:26.712Z,100573.14
2023-06-23T19:40:10.371Z,100576.46
2023-06-23T19:42:42.777Z,100573.60
2023-06-23T19:45:14.969Z,100571.98
2023-06-23T19:47:46.945Z,100566.61
2023-06-23T19:56:44.444Z,100567.96
2023-06-23T19:59:15.177Z,100570.78
2023-06-23T20:01:46.154Z,100577.85
2023-06-23T20:04:17.980Z,100580.14
2023-06-23T20:06:49.011Z,100578.00
2023-06-23T20:09:19.748Z,100573.67
2023-06-23T20:11:50.656Z,100572.10
2023-06-23T20:14:21.437Z,100572.42
2023-06-23T20:16:52.244Z,100571.87
2023-06-23T20:19:24.012Z,100573.79
2023-06-23T20:21:54.725Z,100573.15
2023-06-23T20:24:25.833Z,100576.52
2023-06-23T20:26:56.932Z,100578.32
2023-06-23T20:29:28.132Z,100575.85
2023-06-23T20:31:59.214Z,100572.26
2023-06-23T20:34:30.150Z,100574.79
2023-06-23T20:37:01.204Z,100581.38
2023-06-23T20:39:32.551Z,100585.46
2023-06-23T20:42:03.529Z,100595.88
2023-06-23T20:44:34.410Z,100602.00
2023-06-23T20:47:05.776Z,100605.76
2023-06-23T20:49:36.709Z,100608.08
2023-06-23T20:52:08.409Z,100613.13
2023-06-23T20:54:39.447Z,100615.16
2023-06-23T20:57:10.479Z,100610.41
2023-06-23T20:59:44.139Z,100610.63
2023-06-23T21:02:14.852Z,100610.58
2023-06-23T21:04:45.707Z,100613.84
2023-06-23T21:07:16.772Z,100619.17
2023-06-23T21:09:47.724Z,100621.52
2023-06-23T21:12:18.796Z,100624.98
2023-06-23T21:17:42.091Z,100632.11
2023-06-23T21:20:14.186Z,100639.91
2023-06-23T21:22:45.141Z,100645.52
2023-06-23T21:25:16.127Z,100646.94
2023-06-23T21:27:47.387Z,100652.98
2023-06-23T21:30:18.785Z,100649.27
2023-06-23T21:32:49.800Z,100647.44
2023-06-23T21:35:20.638Z,100652.05
2023-06-23T21:37:51.352Z,100653.67
2023-06-23T21:40:22.643Z,100655.13
2023-06-23T21:42:53.484Z,100656.23
2023-06-23T21:45:25.048Z,100659.35
2023-06-23T21:47:56.073Z,100662.73
2023-06-23T21:50:29.552Z,100665.02
2023-06-23T21:53:02.616Z,100669.66
2023-06-23T21:55:35.457Z,100672.54
2023-06-23T21:58:08.125Z,100669.48
2023-06-23T22:00:38.937Z,100672.71
2023-06-23T22:03:09.613Z,100676.05
2023-06-23T22:05:40.341Z,100676.14
2023-06-23T22:08:11.311Z,100678.31
2023-06-23T22:10:42.257Z,100679.71
2023-06-23T22:13:12.940Z,100679.23
2023-06-23T22:15:43.784Z,100678.23
2023-06-23T22:18:35.675Z,100681.46
2023-06-23T22:21:05.734Z,100684.46
2023-06-23T22:23:36.641Z,100686.61
2023-06-23T22:26:07.274Z,100683.48
2023-06-23T22:28:38.010Z,100687.30
2023-06-23T22:31:08.841Z,100682.33
2023-06-23T22:33:39.759Z,100684.63
2023-06-23T22:36:10.907Z,100682.36
2023-06-23T22:38:43.569Z,100676.02
2023-06-23T22:41:14.276Z,100669.92
2023-06-23T22:43:45.068Z,100669.27
2023-06-23T22:46:15.930Z,100670.38
2023-06-23T22:48:47.091Z,100669.83
2023-06-23T22:51:20.188Z,100672.67
2023-06-23T22:53:50.860Z,100667.36
2023-06-23T22:56:21.705Z,100662.69
2023-06-23T22:58:53.730Z,100661.48
2023-06-23T23:01:25.193Z,100654.77
2023-06-23T23:03:55.979Z,100650.06
2023-06-23T23:06:26.845Z,100650.52
2023-06-23T23:08:58.060Z,100649.14
2023-06-23T23:11:28.774Z,100645.83
2023-06-23T23:13:59.546Z,100645.17
2023-06-23T23:16:31.633Z,100644.48
2023-06-23T23:19:02.343Z,100639.61
2023-06-23T23:21:33.213Z,100642.15
2023-06-23T23:24:03.955Z,100642.48
2023-06-23T23:26:35.707Z,100643.04
2023-06-23T23:29:06.550Z,100638.47
2023-06-23T23:31:41.473Z,100634.46
2023-06-23T23:34:12.442Z,100629.89
2023-06-23T23:36:49.659Z,100624.92
2023-06-23T23:39:20.695Z,100624.87
2023-06-23T23:41:51.531Z,100616.23
2023-06-23T23:44:23.204Z,100612.52
2023-06-23T23:46:53.988Z,100602.77
2023-06-23T23:49:24.882Z,100597.13
2023-06-23T23:51:57.586Z,100592.57
2023-06-23T23:54:28.217Z,100592.63
2023-06-23T23:56:59.359Z,100588.19
2023-06-23T23:59:30.263Z,100588.07
